LHSM/SOB METAR and TAF weather

Enter ICAO airport designator
Station Type Date Time Source
LHSM METAR 2020/01/27 10:45 UTC NOAA

LHSM 271045Z AUTO 27004KT 230V300 4000 BR OVC003 M00/M00 Q1020 BECMG 6000 NSW


Station Type Date Time Source
LHSM Decoded METAR 2020/01/27 10:45 UTC NOAA

Station name not available
Jan 27, 2020 - 05:45 AM EST / 2020.01.27 1045 UTC
Wind: from the W (270 degrees) at 5 MPH (4 KT) (direction variable):0
Visibility: 2 mile(s):0
Sky conditions: overcast
Weather: mist
Temperature: 32 F (0 C)
Windchill: 26 F (-3 C):1
Dew Point: 32 F (0 C)
Relative Humidity: 100%
Pressure (altimeter): 30.12 in. Hg (1020 hPa)
ob: LHSM 271045Z AUTO 27004KT 230V300 4000 BR OVC003 M00/M00 Q1020 BECMG 6000 NSW
cycle: 11

Station Type Date Time Source
LHSM TAF UTC NOAA

Error!

Example: see airport list